createdAt,value
2017-11-29T00:00:25.946Z,82.70
2017-11-29T00:02:52.161Z,82.80
2017-11-29T00:05:18.392Z,82.30
2017-11-29T00:07:44.647Z,82.60
2017-11-29T00:10:11.623Z,82.50
2017-11-29T00:12:37.821Z,81.90
2017-11-29T00:15:04.422Z,81.70
2017-11-29T00:17:30.613Z,82.00
2017-11-29T00:19:57.558Z,82.30
2017-11-29T00:22:23.779Z,81.80
2017-11-29T00:24:50.740Z,82.00
2017-11-29T00:27:16.934Z,81.60
2017-11-29T00:29:43.160Z,81.50
2017-11-29T00:32:09.339Z,81.60
2017-11-29T00:34:35.572Z,81.70
2017-11-29T00:37:01.822Z,81.40
2017-11-29T00:39:28.051Z,81.60
2017-11-29T00:41:54.253Z,85.10
2017-11-29T00:44:20.490Z,80.30
2017-11-29T00:46:46.670Z,80.50
2017-11-29T00:49:12.905Z,80.80
2017-11-29T00:51:39.843Z,81.90
2017-11-29T00:54:06.085Z,81.60
2017-11-29T00:56:32.660Z,81.80
2017-11-29T00:58:59.250Z,82.20
2017-11-29T01:01:25.460Z,83.10
2017-11-29T01:03:51.693Z,82.80
2017-11-29T01:06:18.744Z,82.40
2017-11-29T01:08:45.248Z,82.10
2017-11-29T01:11:11.464Z,82.10
2017-11-29T01:13:38.324Z,82.40
2017-11-29T01:18:33.178Z,82.90
2017-11-29T01:20:59.393Z,82.70
2017-11-29T01:23:26.358Z,82.80
2017-11-29T01:25:53.324Z,83.60
2017-11-29T01:28:19.598Z,83.50
2017-11-29T01:30:45.806Z,83.40
2017-11-29T01:33:12.034Z,84.00
2017-11-29T01:35:39.364Z,84.20
2017-11-29T01:38:05.578Z,84.10
2017-11-29T01:40:32.583Z,84.60
2017-11-29T01:42:59.080Z,84.60
2017-11-29T01:45:25.351Z,84.60
2017-11-29T01:47:51.568Z,84.60
2017-11-29T01:50:17.777Z,84.60
2017-11-29T01:52:44.075Z,84.60
2017-11-29T01:55:11.061Z,85.10
2017-11-29T01:57:37.388Z,84.60
2017-11-29T02:00:03.655Z,84.60
2017-11-29T02:02:29.851Z,84.50
2017-11-29T02:04:56.076Z,84.70
2017-11-29T02:07:22.298Z,84.50
2017-11-29T02:09:48.559Z,84.30
2017-11-29T02:12:14.852Z,84.30
2017-11-29T02:14:41.089Z,84.70
2017-11-29T02:17:07.282Z,84.40
2017-11-29T02:19:33.577Z,84.90
2017-11-29T02:21:59.832Z,84.70
2017-11-29T02:24:26.165Z,84.70
2017-11-29T02:26:52.436Z,84.70
2017-11-29T02:29:19.561Z,84.60
2017-11-29T02:31:46.665Z,85.20
2017-11-29T02:34:14.051Z,85.20
2017-11-29T02:36:40.392Z,84.60
2017-11-29T02:39:06.664Z,84.70
2017-11-29T02:41:45.611Z,84.60
2017-11-29T02:44:11.859Z,84.60
2017-11-29T02:46:38.159Z,84.60
2017-11-29T02:49:05.174Z,84.60
2017-11-29T02:51:32.174Z,85.60
2017-11-29T02:53:59.285Z,84.60
2017-11-29T02:56:26.284Z,84.60
2017-11-29T02:58:52.538Z,84.50
2017-11-29T03:01:19.542Z,85.20
2017-11-29T03:03:46.245Z,84.60
2017-11-29T03:06:13.535Z,84.60
2017-11-29T03:08:39.797Z,84.60
2017-11-29T03:11:06.907Z,84.60
2017-11-29T03:13:33.191Z,84.60
2017-11-29T03:16:00.187Z,85.10
2017-11-29T03:18:26.760Z,84.60
2017-11-29T03:20:53.404Z,84.60
2017-11-29T03:23:20.368Z,84.60
2017-11-29T03:25:47.353Z,85.10
2017-11-29T03:28:13.926Z,84.60
2017-11-29T03:30:41.129Z,84.70
2017-11-29T03:33:07.349Z,84.70
2017-11-29T03:35:33.583Z,84.90
2017-11-29T03:37:59.768Z,85.10
2017-11-29T03:40:26.386Z,84.70
2017-11-29T03:42:52.733Z,84.50
2017-11-29T03:45:18.962Z,85.00
2017-11-29T03:47:45.162Z,84.70
2017-11-29T03:50:11.744Z,84.60
2017-11-29T03:52:38.683Z,85.40
2017-11-29T03:55:05.240Z,84.60
2017-11-29T03:57:32.209Z,85.10
2017-11-29T03:59:58.425Z,84.90
2017-11-29T04:02:24.625Z,84.50
2017-11-29T04:04:51.611Z,85.10
2017-11-29T04:07:17.796Z,84.60
2017-11-29T04:09:45.514Z,84.50
2017-11-29T04:12:11.756Z,84.50
2017-11-29T04:14:37.983Z,84.50
2017-11-29T04:17:04.241Z,84.60
2017-11-29T04:19:30.486Z,84.50
2017-11-29T04:21:58.319Z,85.50
2017-11-29T04:24:25.344Z,84.80
2017-11-29T04:26:51.591Z,85.10
2017-11-29T04:29:17.901Z,85.20
2017-11-29T04:31:44.189Z,85.50
2017-11-29T04:34:11.093Z,86.10
2017-11-29T04:36:37.325Z,86.10
2017-11-29T04:39:03.594Z,86.10
2017-11-29T04:41:30.598Z,86.00
2017-11-29T04:43:56.888Z,85.60
2017-11-29T04:46:23.888Z,86.20
2017-11-29T04:48:50.111Z,86.00
2017-11-29T04:51:16.724Z,85.80
2017-11-29T04:53:44.121Z,85.70
2017-11-29T04:56:10.686Z,86.00
2017-11-29T04:58:37.679Z,86.30
2017-11-29T05:01:06.943Z,86.20
2017-11-29T05:03:33.154Z,85.60
2017-11-29T05:06:00.180Z,85.20
2017-11-29T05:08:26.452Z,84.80
2017-11-29T05:10:53.375Z,85.00
2017-11-29T05:13:19.661Z,84.90
2017-11-29T05:15:46.544Z,86.00
2017-11-29T05:18:12.812Z,85.80
2017-11-29T05:20:44.105Z,85.80
2017-11-29T05:23:11.627Z,86.40
2017-11-29T05:25:37.975Z,86.10
2017-11-29T05:28:04.770Z,86.50
2017-11-29T05:30:31.883Z,87.30
2017-11-29T05:32:58.173Z,86.40
2017-11-29T05:35:24.436Z,86.40
2017-11-29T05:37:51.725Z,86.90
2017-11-29T05:40:18.721Z,87.10
2017-11-29T05:42:44.986Z,87.30
2017-11-29T05:45:11.422Z,87.80
2017-11-29T05:47:38.084Z,87.60
2017-11-29T05:50:05.032Z,88.30
2017-11-29T05:52:32.065Z,88.40
2017-11-29T05:54:58.337Z,88.20
2017-11-29T05:57:24.598Z,87.70
2017-11-29T05:59:50.827Z,87.70
2017-11-29T06:02:17.454Z,87.90
2017-11-29T06:04:44.856Z,87.90
2017-11-29T06:07:13.502Z,87.70
2017-11-29T06:09:41.014Z,87.80
2017-11-29T06:12:07.401Z,88.20
2017-11-29T06:14:33.637Z,87.80
2017-11-29T06:17:00.942Z,87.80
2017-11-29T06:19:27.337Z,87.40
2017-11-29T06:21:53.639Z,87.30
2017-11-29T06:24:21.136Z,86.90
2017-11-29T06:26:47.377Z,86.70
2017-11-29T06:29:14.386Z,87.20
2017-11-29T06:31:41.341Z,86.90
2017-11-29T06:34:07.617Z,88.10
2017-11-29T06:36:34.601Z,87.80
2017-11-29T06:39:01.437Z,87.00
2017-11-29T06:41:27.771Z,90.00
2017-11-29T06:43:53.983Z,87.10
2017-11-29T06:46:24.281Z,84.80
2017-11-29T06:48:53.124Z,84.60
2017-11-29T06:51:19.335Z,84.20
2017-11-29T06:53:47.301Z,84.90
2017-11-29T06:56:13.528Z,85.40
2017-11-29T06:58:41.832Z,85.80
2017-11-29T07:01:08.059Z,86.10
2017-11-29T07:03:35.373Z,86.00
2017-11-29T07:06:01.637Z,86.00
2017-11-29T07:08:28.892Z,86.10
2017-11-29T07:10:55.840Z,85.30
2017-11-29T07:13:22.029Z,86.30
2017-11-29T07:15:49.706Z,86.30
2017-11-29T07:18:16.035Z,86.10
2017-11-29T07:20:42.253Z,86.20
2017-11-29T07:23:08.493Z,86.60
2017-11-29T07:25:34.719Z,86.30
2017-11-29T07:28:04.303Z,86.60
2017-11-29T07:30:32.008Z,86.10
2017-11-29T07:33:00.120Z,86.40
2017-11-29T07:35:27.827Z,86.00
2017-11-29T07:37:53.992Z,86.20
2017-11-29T07:40:20.569Z,85.70
2017-11-29T07:42:49.548Z,86.00
2017-11-29T07:45:16.523Z,86.10
2017-11-29T07:47:42.907Z,85.00
2017-11-29T07:50:10.492Z,85.70
2017-11-29T07:52:38.722Z,86.40
2017-11-29T07:55:05.103Z,86.40
2017-11-29T07:57:33.254Z,86.60
2017-11-29T07:59:59.471Z,86.40
2017-11-29T08:02:25.810Z,86.40
2017-11-29T08:04:52.821Z,86.00
2017-11-29T08:07:21.163Z,86.20
2017-11-29T08:09:47.401Z,86.50
2017-11-29T08:12:14.396Z,86.60
2017-11-29T08:14:41.658Z,86.10
2017-11-29T08:17:07.887Z,85.70
2017-11-29T08:19:34.101Z,85.40
2017-11-29T08:22:00.291Z,85.50
2017-11-29T08:24:26.501Z,85.50
2017-11-29T08:26:54.658Z,85.10
2017-11-29T08:29:20.904Z,84.90
2017-11-29T08:31:48.534Z,84.90
2017-11-29T08:34:14.764Z,84.30
2017-11-29T08:36:41.037Z,84.30
2017-11-29T08:39:08.962Z,83.60
2017-11-29T08:41:35.237Z,83.80
2017-11-29T08:44:01.556Z,83.50
2017-11-29T08:46:28.557Z,84.00
2017-11-29T08:48:55.725Z,84.90
2017-11-29T08:51:21.953Z,85.00
2017-11-29T08:53:48.263Z,85.30
2017-11-29T08:56:14.534Z,85.80
2017-11-29T08:58:40.799Z,87.50
2017-11-29T09:01:07.048Z,86.90
2017-11-29T09:03:33.280Z,86.50
2017-11-29T09:05:59.591Z,84.10
2017-11-29T09:08:26.679Z,84.30
2017-11-29T09:10:53.392Z,83.30
2017-11-29T09:13:20.621Z,83.70
2017-11-29T09:15:48.188Z,85.20
2017-11-29T09:18:14.369Z,85.00
2017-11-29T09:20:40.687Z,85.50
2017-11-29T09:23:06.987Z,85.50
2017-11-29T09:25:33.238Z,85.00
2017-11-29T09:27:59.464Z,85.10
2017-11-29T09:30:25.806Z,85.40
2017-11-29T09:32:52.989Z,85.00
2017-11-29T09:35:20.042Z,85.70
2017-11-29T09:37:46.253Z,85.20
2017-11-29T09:40:14.731Z,85.00
2017-11-29T09:42:40.999Z,85.10
2017-11-29T09:45:07.957Z,85.60
2017-11-29T09:47:34.915Z,84.80
2017-11-29T09:50:01.204Z,84.10
2017-11-29T09:52:27.476Z,83.20
2017-11-29T09:54:54.686Z,83.00
2017-11-29T09:57:20.893Z,82.80
2017-11-29T09:59:47.228Z,82.50
2017-11-29T10:02:13.583Z,82.00
2017-11-29T10:04:39.782Z,81.60
2017-11-29T10:07:06.626Z,82.50
2017-11-29T10:09:33.306Z,79.60
2017-11-29T10:12:00.307Z,79.70
2017-11-29T10:14:26.523Z,79.70
2017-11-29T10:16:52.737Z,80.10
2017-11-29T10:19:19.551Z,81.60
2017-11-29T10:21:47.167Z,81.40
2017-11-29T10:24:13.965Z,81.30
2017-11-29T10:26:40.949Z,78.90
2017-11-29T10:29:07.161Z,78.90
2017-11-29T10:31:33.403Z,78.40
2017-11-29T10:33:59.617Z,78.90
2017-11-29T10:36:25.823Z,79.30
2017-11-29T10:38:52.808Z,79.00
2017-11-29T10:41:18.982Z,78.70
2017-11-29T10:43:45.795Z,79.00
2017-11-29T10:46:12.618Z,79.70
2017-11-29T10:48:39.389Z,75.40
2017-11-29T10:51:07.561Z,74.80
2017-11-29T10:53:33.800Z,75.80
2017-11-29T10:56:00.156Z,75.00
2017-11-29T10:58:27.104Z,73.40
2017-11-29T11:00:54.440Z,72.50
2017-11-29T11:03:20.656Z,69.80
2017-11-29T11:05:46.911Z,70.10
2017-11-29T11:08:13.197Z,71.30
2017-11-29T11:10:39.475Z,71.80
2017-11-29T11:22:51.239Z,73.00
2017-11-29T11:25:18.252Z,73.60
2017-11-29T11:27:44.504Z,73.80
2017-11-29T11:30:10.746Z,73.10
2017-11-29T11:32:37.330Z,72.80
2017-11-29T11:35:04.539Z,72.70
2017-11-29T11:37:31.046Z,73.30
2017-11-29T11:39:58.792Z,73.70
2017-11-29T11:42:25.773Z,73.10
2017-11-29T11:44:51.996Z,72.90
2017-11-29T11:47:18.226Z,70.80
2017-11-29T11:49:44.497Z,72.60
2017-11-29T11:52:10.725Z,72.10
2017-11-29T11:54:37.026Z,72.60
2017-11-29T11:57:04.774Z,73.50
2017-11-29T11:59:30.994Z,74.10
2017-11-29T12:01:57.272Z,73.80
2017-11-29T12:04:23.521Z,75.00
2017-11-29T12:06:49.760Z,72.70
2017-11-29T12:09:16.005Z,75.00
2017-11-29T12:11:42.251Z,75.80
2017-11-29T12:14:08.462Z,76.20
2017-11-29T12:16:34.753Z,77.00
2017-11-29T12:19:01.056Z,77.60
2017-11-29T12:21:27.300Z,78.00
2017-11-29T12:23:54.228Z,75.30
2017-11-29T12:26:23.021Z,71.80
2017-11-29T12:28:49.677Z,71.00
2017-11-29T12:31:16.654Z,70.60
2017-11-29T12:33:42.891Z,71.30
2017-11-29T12:36:09.157Z,69.50
2017-11-29T12:38:39.939Z,69.60
2017-11-29T12:41:06.180Z,69.00
2017-11-29T12:43:32.484Z,68.80
2017-11-29T12:45:58.824Z,68.20
2017-11-29T12:48:37.320Z,66.50
2017-11-29T12:51:18.053Z,66.60
2017-11-29T12:53:44.378Z,66.00
2017-11-29T12:56:11.392Z,65.50
2017-11-29T12:58:38.088Z,64.50
2017-11-29T13:01:04.345Z,61.50
2017-11-29T13:03:35.413Z,62.10
2017-11-29T13:06:02.716Z,63.40
2017-11-29T13:08:29.716Z,64.00
2017-11-29T13:10:56.593Z,64.70
2017-11-29T13:13:23.474Z,64.90
2017-11-29T13:15:51.069Z,66.70
2017-11-29T13:18:17.863Z,67.20
2017-11-29T13:20:45.419Z,68.10
2017-11-29T13:23:13.087Z,69.10
2017-11-29T13:25:40.640Z,69.10
2017-11-29T13:28:06.940Z,67.90
2017-11-29T13:30:33.288Z,67.40
2017-11-29T13:32:59.540Z,67.30
2017-11-29T13:35:26.514Z,67.90
2017-11-29T13:37:52.777Z,66.60
2017-11-29T13:40:19.912Z,65.50
2017-11-29T13:42:46.205Z,66.00
2017-11-29T13:45:28.099Z,65.10
2017-11-29T13:50:29.780Z,63.70
2017-11-29T13:52:56.780Z,65.50
2017-11-29T13:55:25.397Z,65.40
2017-11-29T13:57:51.782Z,69.30
2017-11-29T14:00:18.788Z,64.60
2017-11-29T14:02:45.769Z,65.00
2017-11-29T14:05:12.055Z,72.40
2017-11-29T14:07:38.352Z,66.70
2017-11-29T14:10:05.211Z,67.20
2017-11-29T14:12:31.903Z,64.90
2017-11-29T14:14:58.683Z,65.10
2017-11-29T14:17:25.803Z,65.30
2017-11-29T14:19:53.289Z,65.20
2017-11-29T14:22:21.083Z,65.00
2017-11-29T14:24:47.907Z,69.20
2017-11-29T14:27:15.708Z,70.60
2017-11-29T14:29:43.978Z,65.40
2017-11-29T14:32:11.566Z,64.70
2017-11-29T14:34:38.332Z,67.50
2017-11-29T14:37:05.316Z,65.30
2017-11-29T14:39:34.942Z,66.40
2017-11-29T14:42:01.936Z,66.80
2017-11-29T14:44:28.547Z,66.40
2017-11-29T14:46:55.114Z,67.40
2017-11-29T14:49:21.775Z,67.30
2017-11-29T14:51:48.338Z,67.00
2017-11-29T14:54:15.309Z,68.80
2017-11-29T14:56:42.249Z,68.50
2017-11-29T14:59:08.980Z,68.60
2017-11-29T15:01:35.975Z,69.30
2017-11-29T15:04:02.650Z,68.60
2017-11-29T15:06:29.635Z,68.90
2017-11-29T15:08:56.639Z,68.10
2017-11-29T15:11:22.812Z,69.30
2017-11-29T15:13:49.783Z,68.30
2017-11-29T15:16:16.396Z,68.60
2017-11-29T15:18:42.588Z,69.00
2017-11-29T15:21:09.232Z,69.10
2017-11-29T15:23:36.144Z,70.10
2017-11-29T15:26:02.330Z,69.50
2017-11-29T15:28:28.508Z,70.00
2017-11-29T15:30:55.083Z,69.80
2017-11-29T15:33:21.745Z,69.70
2017-11-29T15:35:51.231Z,70.60
2017-11-29T15:38:17.888Z,70.90
2017-11-29T15:40:44.576Z,71.10
2017-11-29T15:43:11.176Z,70.70
2017-11-29T15:45:38.177Z,71.10
2017-11-29T15:48:05.186Z,71.30
2017-11-29T15:50:31.398Z,72.50
2017-11-29T15:52:58.427Z,70.80
2017-11-29T15:55:24.889Z,72.50
2017-11-29T15:57:51.120Z,73.80
2017-11-29T16:00:18.097Z,71.40
2017-11-29T16:02:44.800Z,71.80
2017-11-29T16:05:11.102Z,71.70
2017-11-29T16:07:37.577Z,73.40
2017-11-29T16:10:03.871Z,72.40
2017-11-29T16:12:30.191Z,74.60
2017-11-29T16:14:56.433Z,76.30
2017-11-29T16:17:23.379Z,72.50
2017-11-29T16:19:50.368Z,72.10
2017-11-29T16:22:17.377Z,73.00
2017-11-29T16:24:43.607Z,72.70
2017-11-29T16:27:11.085Z,73.30
2017-11-29T16:29:37.353Z,74.80
2017-11-29T16:32:05.610Z,73.50
2017-11-29T16:34:31.843Z,78.70
2017-11-29T16:36:58.031Z,74.40
2017-11-29T16:39:24.318Z,76.30
2017-11-29T16:41:51.301Z,74.70
2017-11-29T16:44:18.341Z,74.10
2017-11-29T16:46:44.629Z,73.80
2017-11-29T16:49:10.830Z,76.70
2017-11-29T16:51:37.872Z,75.30
2017-11-29T16:54:04.574Z,74.50
2017-11-29T16:56:31.580Z,75.00
2017-11-29T16:58:58.172Z,74.70
2017-11-29T17:01:24.709Z,74.90
2017-11-29T17:03:51.351Z,74.60
2017-11-29T17:06:18.378Z,74.40
2017-11-29T17:08:45.419Z,74.90
2017-11-29T17:11:12.390Z,74.80
2017-11-29T17:13:39.033Z,74.30
2017-11-29T17:16:05.286Z,74.90
2017-11-29T17:18:31.612Z,74.30
2017-11-29T17:20:58.632Z,74.30
2017-11-29T17:23:24.833Z,76.90
2017-11-29T17:25:51.885Z,74.30
2017-11-29T17:28:18.940Z,74.20
2017-11-29T17:30:45.553Z,74.30
2017-11-29T17:33:11.899Z,76.70
2017-11-29T17:35:38.493Z,74.20
2017-11-29T17:38:04.732Z,74.70
2017-11-29T17:40:31.009Z,75.80
2017-11-29T17:42:57.981Z,74.50
2017-11-29T17:45:24.331Z,77.10
2017-11-29T17:47:51.330Z,75.00
2017-11-29T17:50:18.320Z,74.60
2017-11-29T17:52:45.002Z,74.50
2017-11-29T17:55:12.804Z,74.80
2017-11-29T17:57:40.579Z,74.80
2017-11-29T18:00:06.895Z,81.50
2017-11-29T18:02:33.163Z,75.30
2017-11-29T18:04:59.410Z,81.30
2017-11-29T18:09:53.973Z,75.50
2017-11-29T18:12:20.172Z,82.70
2017-11-29T18:14:47.138Z,76.00
2017-11-29T18:17:14.172Z,76.20
2017-11-29T18:19:41.503Z,75.30
2017-11-29T18:22:10.327Z,75.80
2017-11-29T18:24:37.751Z,75.20
2017-11-29T18:27:04.040Z,81.90
2017-11-29T18:29:31.015Z,75.00
2017-11-29T18:31:57.404Z,77.80
2017-11-29T18:34:24.041Z,75.10
2017-11-29T18:36:51.029Z,75.50
2017-11-29T18:39:17.323Z,83.00
2017-11-29T18:41:43.588Z,83.10
2017-11-29T18:44:09.903Z,81.60
2017-11-29T18:46:36.884Z,76.60
2017-11-29T18:49:04.550Z,76.30
2017-11-29T18:51:30.928Z,83.70
2017-11-29T18:53:57.914Z,87.50
2017-11-29T18:56:25.499Z,77.70
2017-11-29T18:58:52.113Z,77.10
2017-11-29T19:01:19.105Z,77.30
2017-11-29T19:03:46.257Z,76.80
2017-11-29T19:06:13.263Z,76.80
2017-11-29T19:08:39.959Z,77.10
2017-11-29T19:11:06.482Z,77.00
2017-11-29T19:13:33.187Z,78.80
2017-11-29T19:16:00.252Z,78.60
2017-11-29T19:18:27.327Z,77.80
2017-11-29T19:20:53.582Z,84.40
2017-11-29T19:23:19.880Z,80.00
2017-11-29T19:25:46.855Z,77.70
2017-11-29T19:28:13.208Z,84.20
2017-11-29T19:30:40.204Z,78.00
2017-11-29T19:33:07.962Z,78.70
2017-11-29T19:35:34.970Z,78.30
2017-11-29T19:38:02.613Z,77.70
2017-11-29T19:40:29.562Z,78.10
2017-11-29T19:42:56.567Z,77.60
2017-11-29T19:45:22.836Z,78.90
2017-11-29T19:47:49.099Z,79.70
2017-11-29T19:50:16.419Z,77.60
2017-11-29T19:52:43.230Z,81.00
2017-11-29T19:55:09.520Z,85.60
2017-11-29T19:57:36.193Z,78.20
2017-11-29T20:00:03.210Z,79.30
2017-11-29T20:02:30.740Z,79.30
2017-11-29T20:04:57.258Z,83.20
2017-11-29T20:07:24.493Z,81.30
2017-11-29T20:09:51.629Z,81.90
2017-11-29T20:12:18.765Z,81.60
2017-11-29T20:14:45.185Z,86.00
2017-11-29T20:17:11.500Z,82.80
2017-11-29T20:19:38.888Z,82.50
2017-11-29T20:22:08.912Z,83.20
2017-11-29T20:24:35.818Z,84.30
2017-11-29T20:27:02.173Z,82.90
2017-11-29T20:29:29.567Z,85.30
2017-11-29T20:31:56.666Z,82.60
2017-11-29T20:34:24.559Z,83.10
2017-11-29T20:36:52.146Z,83.20
2017-11-29T20:39:19.331Z,84.50
2017-11-29T20:41:45.582Z,83.60
2017-11-29T20:44:11.876Z,84.20
2017-11-29T20:46:39.322Z,83.00
2017-11-29T20:49:05.700Z,83.60
2017-11-29T20:51:31.997Z,86.10
2017-11-29T20:53:58.260Z,84.20
2017-11-29T20:56:25.550Z,84.70
2017-11-29T20:58:53.625Z,84.70
2017-11-29T21:01:20.684Z,85.50
2017-11-29T21:03:47.113Z,84.10
2017-11-29T21:06:13.938Z,86.20
2017-11-29T21:08:40.197Z,85.10
2017-11-29T21:11:07.157Z,92.20
2017-11-29T21:13:33.396Z,86.10
2017-11-29T21:16:00.844Z,83.60
2017-11-29T21:18:27.164Z,92.10
2017-11-29T21:20:53.466Z,91.80
2017-11-29T21:23:20.901Z,84.40
2017-11-29T21:25:47.148Z,87.00
2017-11-29T21:28:13.395Z,84.20
2017-11-29T21:30:40.688Z,84.80
2017-11-29T21:33:06.942Z,91.50
2017-11-29T21:35:34.214Z,92.50
2017-11-29T21:38:01.226Z,84.20
2017-11-29T21:40:27.573Z,90.10
2017-11-29T21:42:53.821Z,88.30
2017-11-29T21:55:05.091Z,86.10
2017-11-29T21:57:32.004Z,84.30
2017-11-29T21:59:59.052Z,84.20
2017-11-29T22:02:25.912Z,84.00
2017-11-29T22:04:52.857Z,84.00
2017-11-29T22:07:19.835Z,85.10
2017-11-29T22:09:46.048Z,84.00
2017-11-29T22:12:13.025Z,84.40
2017-11-29T22:14:39.211Z,84.30
2017-11-29T22:17:06.406Z,84.40
2017-11-29T22:19:33.562Z,83.90
2017-11-29T22:21:59.823Z,84.00
2017-11-29T22:24:26.566Z,84.00
2017-11-29T22:26:53.105Z,84.50
2017-11-29T22:29:20.293Z,84.10
2017-11-29T22:31:46.575Z,84.20
2017-11-29T22:34:13.021Z,84.10
2017-11-29T22:36:40.117Z,83.60
2017-11-29T22:39:06.449Z,83.70
2017-11-29T22:41:32.684Z,84.20
2017-11-29T22:44:00.039Z,84.70
2017-11-29T22:46:26.362Z,84.20
2017-11-29T22:48:52.983Z,84.10
2017-11-29T22:51:19.653Z,84.10
2017-11-29T22:53:45.909Z,84.10
2017-11-29T22:56:12.546Z,84.10
2017-11-29T22:58:38.795Z,84.70
2017-11-29T23:01:05.068Z,84.20
2017-11-29T23:03:31.660Z,84.20
2017-11-29T23:05:57.893Z,84.30
2017-11-29T23:08:24.186Z,84.20
2017-11-29T23:10:50.765Z,84.80
2017-11-29T23:13:17.380Z,83.70
2017-11-29T23:15:43.615Z,87.60
2017-11-29T23:18:09.817Z,84.40
2017-11-29T23:20:36.043Z,91.30
2017-11-29T23:23:02.648Z,83.20
2017-11-29T23:25:28.913Z,85.10
2017-11-29T23:27:55.519Z,83.40
2017-11-29T23:30:22.477Z,83.50
2017-11-29T23:32:48.776Z,91.00
2017-11-29T23:35:16.678Z,84.80
2017-11-29T23:37:42.912Z,85.40
2017-11-29T23:40:09.134Z,85.80
2017-11-29T23:42:36.580Z,84.30
2017-11-29T23:45:02.934Z,84.20
2017-11-29T23:47:29.208Z,84.30
2017-11-29T23:49:56.422Z,84.50
2017-11-29T23:52:22.625Z,85.30
2017-11-29T23:54:48.900Z,85.10
2017-11-29T23:57:15.143Z,84.30
2017-11-29T23:59:41.355Z,84.90
